Bonao, Dominican Republic
Current Conditions -  °F | °C
As of 8:00 PM on Tuesday 25 Nov 2014 (Local Time) from MDST Reporting Station
Broken Clouds Broken Clouds  
Wind Chill: 75°   Ceiling: 1600
Heat Index: 75°   Visibility: 6mi
Dew Point: 75°   Wind: 7mph
Humidity: 100%   Direction: 160°SSE
Pressure: 30"   Gusts: NA
Location:  18.95°N, 70.41°W
Report Text: MDST 260000Z 16006KT 9999 BKN016 24/24 Q1016
Loading
Personal Weather Stations






























Interactive Weather Map New forecast layout! Learn more

10-Day Weather Forecast

Advertisements
Track Severe Weather on mobile